Quick Links (Output Below):   Max & Min Temps   /   Climate Reports   /   Zone Forecasts
River Forecasts   /   Forestry Forecasts   /   Aviation Forecasts   /   Radars   /   Features

Terminal Aerodrome Forecast (Mountain Home)

Pick a Site:
Arkadelphia | El Dorado | Fayetteville | Fort Smith | Harrison | Highfill | Hot Springs | Jonesboro
Little Rock | Monticello | Mountain Home | Pine Bluff | Texarkana
 Forecast 

KBPK 201740Z 2018/2118 13005KT P6SM SCT050
     FM210300 12004KT P6SM SCT025 BKN050
     FM210900 11005KT P6SM BKN025 BKN050
     FM211500 12006KT P6SM VCSH OVC015=


 Latest METARs (Observations) 
How to Decode METARs
20Z KBPK 201953Z AUTO VRB03KT 10SM SCT050 11/M06 A3016 RMK AO2 SLP214
         T01061061
         
19Z KBPK 201853Z AUTO VRB06KT 10SM CLR 09/M07 A3018 RMK AO2 SLP222
         T00941072
         
18Z KBPK 201753Z AUTO 9SM CLR 08/M06 A3021 RMK AO2 SLP232 T00781061
         10078 21039 58014
         
17Z KBPK 201653Z AUTO 00000KT 10SM CLR 06/M07 A3024 RMK AO2 SLP245
         T00561067
         
16Z KBPK 201553Z AUTO 18004KT 9SM CLR 03/M04 A3025 RMK AO2 SLP249
         T00331044
         
15Z KBPK 201453Z AUTO 00000KT 9SM CLR 02/M04 A3025 RMK AO2 SLP247
         T00221039 53011
         
14Z KBPK 201353Z AUTO 00000KT 7SM CLR M02/M04 A3023 RMK AO2 SLP243
         T10171039
         
13Z KBPK 201253Z AUTO 00000KT 8SM CLR M04/M06 A3022 RMK AO2 SLP239
         T10391056
         
12Z KBPK 201153Z AUTO 00000KT 9SM CLR M03/M06 A3021 RMK AO2 SLP236
         T10331061 10000 21039 56006
         
11Z KBPK 201053Z AUTO 00000KT 9SM CLR M03/M06 A3022 RMK AO2 SLP237
         T10331061
         
***** Today's Observations (Above) *****


Back to Main Page
http://www.srh.noaa.gov/lzk/qfcst.php

USA.gov is the U.S. government's official web portal to all federal, state and local government web resources and services.